sensor_id;sensor_type;location;lat;lon;timestamp;pressure;altitude;pressure_sealevel;temperature;humidity
50282;BME280;36176;51.506;10.272;2022-11-25T00:00:12;99364.34;;;1.10;99.33
50282;BME280;36176;51.506;10.272;2022-11-25T00:02:43;99360.81;;;1.14;99.53
50282;BME280;36176;51.506;10.272;2022-11-25T00:05:10;99359.09;;;1.13;99.66
50282;BME280;36176;51.506;10.272;2022-11-25T00:07:38;99352.19;;;1.11;99.22
50282;BME280;36176;51.506;10.272;2022-11-25T00:10:05;99357.41;;;1.08;98.59
50282;BME280;36176;51.506;10.272;2022-11-25T00:12:33;99353.13;;;1.00;99.48
50282;BME280;36176;51.506;10.272;2022-11-25T00:15:00;99352.28;;;1.01;99.31
50282;BME280;36176;51.506;10.272;2022-11-25T00:17:27;99344.41;;;1.03;99.34
50282;BME280;36176;51.506;10.272;2022-11-25T00:19:54;99344.38;;;1.08;100.00
50282;BME280;36176;51.506;10.272;2022-11-25T00:22:22;99349.53;;;1.12;99.84
50282;BME280;36176;51.506;10.272;2022-11-25T00:24:49;99346.03;;;1.15;99.16
50282;BME280;36176;51.506;10.272;2022-11-25T00:27:16;99348.66;;;1.13;99.12
50282;BME280;36176;51.506;10.272;2022-11-25T00:29:43;99351.31;;;1.09;99.05
50282;BME280;36176;51.506;10.272;2022-11-25T00:32:10;99346.16;;;1.05;98.83
50282;BME280;36176;51.506;10.272;2022-11-25T00:34:37;99345.34;;;0.99;98.34
50282;BME280;36176;51.506;10.272;2022-11-25T00:37:05;99345.34;;;0.97;98.81
50282;BME280;36176;51.506;10.272;2022-11-25T00:39:32;99347.09;;;0.97;98.61
50282;BME280;36176;51.506;10.272;2022-11-25T00:41:59;99341.88;;;0.95;98.59
50282;BME280;36176;51.506;10.272;2022-11-25T00:44:45;99343.69;;;0.89;98.23
50282;BME280;36176;51.506;10.272;2022-11-25T00:47:16;99342.06;;;0.80;98.55
50282;BME280;36176;51.506;10.272;2022-11-25T00:49:46;99341.19;;;0.76;98.44
50282;BME280;36176;51.506;10.272;2022-11-25T00:52:21;99340.34;;;0.76;98.93
50282;BME280;36176;51.506;10.272;2022-11-25T00:54:50;99336.00;;;0.76;98.69
50282;BME280;36176;51.506;10.272;2022-11-25T00:57:19;99345.59;;;0.73;98.47
50282;BME280;36176;51.506;10.272;2022-11-25T01:00:06;99345.59;;;0.71;98.39
50282;BME280;36176;51.506;10.272;2022-11-25T01:02:34;99341.31;;;0.67;98.20
50282;BME280;36176;51.506;10.272;2022-11-25T01:05:01;99341.31;;;0.64;98.01
50282;BME280;36176;51.506;10.272;2022-11-25T01:07:28;99336.13;;;0.62;98.71
50282;BME280;36176;51.506;10.272;2022-11-25T01:09:55;99345.69;;;0.63;98.41
50282;BME280;36176;51.506;10.272;2022-11-25T01:12:23;99342.19;;;0.64;98.95
50282;BME280;36176;51.506;10.272;2022-11-25T01:14:50;99349.16;;;0.64;98.10
50282;BME280;36176;51.506;10.272;2022-11-25T01:17:17;99341.34;;;0.61;98.61
50282;BME280;36176;51.506;10.272;2022-11-25T01:19:44;99340.50;;;0.57;98.57
50282;BME280;36176;51.506;10.272;2022-11-25T01:22:11;99346.66;;;0.53;99.10
50282;BME280;36176;51.506;10.272;2022-11-25T01:24:38;99340.56;;;0.53;98.76
50282;BME280;36176;51.506;10.272;2022-11-25T01:27:05;99336.22;;;0.53;98.94
50282;BME280;36176;51.506;10.272;2022-11-25T01:29:38;99337.03;;;0.57;99.74
50282;BME280;36176;51.506;10.272;2022-11-25T01:32:07;99348.31;;;0.60;99.60
50282;BME280;36176;51.506;10.272;2022-11-25T01:34:34;99347.47;;;0.60;99.44
50282;BME280;36176;51.506;10.272;2022-11-25T01:37:03;99352.66;;;0.61;99.58
50282;BME280;36176;51.506;10.272;2022-11-25T01:39:31;99356.16;;;0.60;99.35
50282;BME280;36176;51.506;10.272;2022-11-25T01:42:00;99349.16;;;0.64;99.80
50282;BME280;36176;51.506;10.272;2022-11-25T01:44:29;99343.94;;;0.64;99.55
50282;BME280;36176;51.506;10.272;2022-11-25T01:47:02;99339.56;;;0.64;99.16
50282;BME280;36176;51.506;10.272;2022-11-25T01:49:35;99333.50;;;0.66;99.93
50282;BME280;36176;51.506;10.272;2022-11-25T01:54:51;99340.44;;;0.67;99.67
50282;BME280;36176;51.506;10.272;2022-11-25T01:57:31;99338.69;;;0.70;100.00
50282;BME280;36176;51.506;10.272;2022-11-25T02:00:07;99338.63;;;0.73;100.00
50282;BME280;36176;51.506;10.272;2022-11-25T02:02:35;99340.34;;;0.76;100.00
50282;BME280;36176;51.506;10.272;2022-11-25T02:05:06;99347.28;;;0.80;100.00
50282;BME280;36176;51.506;10.272;2022-11-25T02:07:40;99332.44;;;0.87;100.00
50282;BME280;36176;51.506;10.272;2022-11-25T02:10:29;99338.50;;;0.87;100.00
50282;BME280;36176;51.506;10.272;2022-11-25T02:12:58;99337.59;;;0.90;100.00
50282;BME280;36176;51.506;10.272;2022-11-25T02:15:25;99341.94;;;0.91;100.00
50282;BME280;36176;51.506;10.272;2022-11-25T02:18:13;99341.06;;;0.92;100.00
50282;BME280;36176;51.506;10.272;2022-11-25T02:20:46;99343.63;;;0.96;100.00
50282;BME280;36176;51.506;10.272;2022-11-25T02:23:52;99340.09;;;1.02;100.00
50282;BME280;36176;51.506;10.272;2022-11-25T02:27:06;99329.59;;;1.06;100.00
50282;BME280;36176;51.506;10.272;2022-11-25T02:29:33;99330.41;;;1.10;100.00
50282;BME280;36176;51.506;10.272;2022-11-25T02:32:01;99326.91;;;1.14;100.00
50282;BME280;36176;51.506;10.272;2022-11-25T02:34:28;99316.41;;;1.19;100.00
50282;BME280;36176;51.506;10.272;2022-11-25T02:36:55;99323.28;;;1.24;100.00
50282;BME280;36176;51.506;10.272;2022-11-25T02:39:22;99319.66;;;1.36;100.00
50282;BME280;36176;51.506;10.272;2022-11-25T02:41:55;99317.63;;;1.60;100.00
50282;BME280;36176;51.506;10.272;2022-11-25T02:44:26;99321.63;;;1.87;100.00
50282;BME280;36176;51.506;10.272;2022-11-25T02:46:53;99325.72;;;2.05;100.00
50282;BME280;36176;51.506;10.272;2022-11-25T02:49:20;99325.47;;;2.20;100.00
50282;BME280;36176;51.506;10.272;2022-11-25T02:51:47;99320.16;;;2.26;100.00
50282;BME280;36176;51.506;10.272;2022-11-25T02:54:15;99318.31;;;2.31;100.00
50282;BME280;36176;51.506;10.272;2022-11-25T02:56:42;99311.41;;;2.29;100.00
50282;BME280;36176;51.506;10.272;2022-11-25T02:59:10;99313.94;;;2.33;100.00
50282;BME280;36176;51.506;10.272;2022-11-25T03:01:38;99314.44;;;2.57;100.00
50282;BME280;36176;51.506;10.272;2022-11-25T03:04:06;99314.97;;;2.76;100.00
50282;BME280;36176;51.506;10.272;2022-11-25T03:06:33;99309.50;;;2.88;100.00
50282;BME280;36176;51.506;10.272;2022-11-25T03:09:01;99312.03;;;2.93;100.00
50282;BME280;36176;51.506;10.272;2022-11-25T03:11:29;99312.72;;;3.03;100.00
50282;BME280;36176;51.506;10.272;2022-11-25T03:14:15;99307.00;;;3.27;100.00
50282;BME280;36176;51.506;10.272;2022-11-25T03:16:43;99297.25;;;3.35;100.00
50282;BME280;36176;51.506;10.272;2022-11-25T03:19:10;99296.41;;;3.33;100.00
50282;BME280;36176;51.506;10.272;2022-11-25T03:21:38;99298.97;;;3.36;100.00
50282;BME280;36176;51.506;10.272;2022-11-25T03:24:06;99293.84;;;3.30;100.00
50282;BME280;36176;51.506;10.272;2022-11-25T03:26:34;99294.00;;;3.23;100.00
50282;BME280;36176;51.506;10.272;2022-11-25T03:29:01;99300.22;;;3.17;100.00
50282;BME280;36176;51.506;10.272;2022-11-25T03:31:28;99297.53;;;3.20;100.00
50282;BME280;36176;51.506;10.272;2022-11-25T03:33:56;99287.69;;;3.33;100.00
50282;BME280;36176;51.506;10.272;2022-11-25T03:36:23;99289.13;;;3.48;100.00
50282;BME280;36176;51.506;10.272;2022-11-25T03:38:50;99287.06;;;3.62;100.00
50282;BME280;36176;51.506;10.272;2022-11-25T03:41:18;99293.72;;;3.78;100.00
50282;BME280;36176;51.506;10.272;2022-11-25T03:43:45;99293.44;;;3.91;100.00
50282;BME280;36176;51.506;10.272;2022-11-25T03:46:15;99290.50;;;4.03;100.00
50282;BME280;36176;51.506;10.272;2022-11-25T03:48:43;99290.31;;;4.12;100.00
50282;BME280;36176;51.506;10.272;2022-11-25T03:51:10;99289.47;;;4.10;100.00
50282;BME280;36176;51.506;10.272;2022-11-25T03:53:38;99293.91;;;4.07;100.00
50282;BME280;36176;51.506;10.272;2022-11-25T03:56:06;99283.53;;;4.02;100.00
50282;BME280;36176;51.506;10.272;2022-11-25T03:58:34;99296.03;;;3.91;100.00
50282;BME280;36176;51.506;10.272;2022-11-25T04:01:02;99292.78;;;3.79;100.00
50282;BME280;36176;51.506;10.272;2022-11-25T04:03:31;99292.16;;;3.68;100.00
50282;BME280;36176;51.506;10.272;2022-11-25T04:05:58;99288.81;;;3.61;100.00
50282;BME280;36176;51.506;10.272;2022-11-25T04:08:25;99289.06;;;3.51;100.00
50282;BME280;36176;51.506;10.272;2022-11-25T04:10:53;99286.72;;;3.37;99.89
50282;BME280;36176;51.506;10.272;2022-11-25T04:13:20;99293.72;;;3.36;100.00
50282;BME280;36176;51.506;10.272;2022-11-25T04:15:49;99291.19;;;3.33;100.00
50282;BME280;36176;51.506;10.272;2022-11-25T04:18:17;99303.44;;;3.30;100.00
50282;BME280;36176;51.506;10.272;2022-11-25T04:20:45;99295.75;;;3.22;100.00
50282;BME280;36176;51.506;10.272;2022-11-25T04:23:13;99299.47;;;3.12;100.00
50282;BME280;36176;51.506;10.272;2022-11-25T04:25:40;99297.78;;;3.08;100.00
50282;BME280;36176;51.506;10.272;2022-11-25T04:28:08;99302.25;;;3.03;100.00
50282;BME280;36176;51.506;10.272;2022-11-25T04:30:36;99301.53;;;2.94;100.00
50282;BME280;36176;51.506;10.272;2022-11-25T04:33:03;99298.94;;;2.93;100.00
50282;BME280;36176;51.506;10.272;2022-11-25T04:35:30;99301.59;;;2.91;100.00
50282;BME280;36176;51.506;10.272;2022-11-25T04:37:57;99305.97;;;2.89;100.00
50282;BME280;36176;51.506;10.272;2022-11-25T04:40:25;99308.50;;;2.95;100.00
50282;BME280;36176;51.506;10.272;2022-11-25T04:42:52;99304.72;;;3.10;100.00
50282;BME280;36176;51.506;10.272;2022-11-25T04:45:28;99310.63;;;3.20;100.00
50282;BME280;36176;51.506;10.272;2022-11-25T04:48:15;99310.53;;;3.25;100.00
50282;BME280;36176;51.506;10.272;2022-11-25T04:50:42;99309.72;;;3.23;100.00
50282;BME280;36176;51.506;10.272;2022-11-25T04:53:10;99307.00;;;3.27;100.00
50282;BME280;36176;51.506;10.272;2022-11-25T04:55:37;99309.69;;;3.24;100.00
50282;BME280;36176;51.506;10.272;2022-11-25T04:58:04;99311.28;;;3.33;100.00
50282;BME280;36176;51.506;10.272;2022-11-25T05:00:32;99308.66;;;3.33;100.00
50282;BME280;36176;51.506;10.272;2022-11-25T05:02:59;99307.84;;;3.28;100.00
50282;BME280;36176;51.506;10.272;2022-11-25T05:05:33;99309.75;;;3.21;100.00
50282;BME280;36176;51.506;10.272;2022-11-25T05:08:00;99308.19;;;3.12;100.00
50282;BME280;36176;51.506;10.272;2022-11-25T05:10:28;99316.94;;;3.10;100.00
50282;BME280;36176;51.506;10.272;2022-11-25T05:12:55;99312.63;;;3.07;100.00
50282;BME280;36176;51.506;10.272;2022-11-25T05:15:22;99312.78;;;3.00;100.00
50282;BME280;36176;51.506;10.272;2022-11-25T05:17:49;99319.06;;;2.91;100.00
50282;BME280;36176;51.506;10.272;2022-11-25T05:20:16;99318.34;;;2.83;100.00
50282;BME280;36176;51.506;10.272;2022-11-25T05:22:44;99318.50;;;2.73;100.00
50282;BME280;36176;51.506;10.272;2022-11-25T05:25:11;99329.06;;;2.66;100.00
50282;BME280;36176;51.506;10.272;2022-11-25T05:27:39;99319.63;;;2.59;100.00
50282;BME280;36176;51.506;10.272;2022-11-25T05:30:07;99322.34;;;2.52;100.00
50282;BME280;36176;51.506;10.272;2022-11-25T05:32:34;99332.09;;;2.44;99.79
50282;BME280;36176;51.506;10.272;2022-11-25T05:35:02;99328.72;;;2.34;100.00
50282;BME280;36176;51.506;10.272;2022-11-25T05:37:29;99327.94;;;2.31;100.00
50282;BME280;36176;51.506;10.272;2022-11-25T05:39:56;99332.38;;;2.24;100.00
50282;BME280;36176;51.506;10.272;2022-11-25T05:42:24;99335.91;;;2.22;100.00
50282;BME280;36176;51.506;10.272;2022-11-25T05:44:51;99338.66;;;2.12;100.00
50282;BME280;36176;51.506;10.272;2022-11-25T05:47:19;99345.66;;;2.10;100.00
50282;BME280;36176;51.506;10.272;2022-11-25T05:50:01;99347.53;;;2.04;100.00
50282;BME280;36176;51.506;10.272;2022-11-25T05:52:28;99345.84;;;1.98;100.00
50282;BME280;36176;51.506;10.272;2022-11-25T05:54:55;99342.38;;;1.96;100.00
50282;BME280;36176;51.506;10.272;2022-11-25T05:57:23;99339.81;;;1.95;100.00
50282;BME280;36176;51.506;10.272;2022-11-25T06:00:09;99339.81;;;1.93;100.00
50282;BME280;36176;51.506;10.272;2022-11-25T06:02:38;99345.06;;;1.91;100.00
50282;BME280;36176;51.506;10.272;2022-11-25T06:05:05;99339.84;;;1.91;100.00
50282;BME280;36176;51.506;10.272;2022-11-25T06:07:33;99343.22;;;1.98;100.00
50282;BME280;36176;51.506;10.272;2022-11-25T06:10:00;99344.13;;;1.97;100.00
50282;BME280;36176;51.506;10.272;2022-11-25T06:12:29;99337.09;;;2.02;100.00
50282;BME280;36176;51.506;10.272;2022-11-25T06:14:56;99339.63;;;2.05;100.00
50282;BME280;36176;51.506;10.272;2022-11-25T06:17:26;99343.09;;;2.09;100.00
50282;BME280;36176;51.506;10.272;2022-11-25T06:19:53;99334.28;;;2.13;100.00
50282;BME280;36176;51.506;10.272;2022-11-25T06:22:20;99333.31;;;2.22;100.00
50282;BME280;36176;51.506;10.272;2022-11-25T06:24:47;99341.06;;;2.28;100.00
50282;BME280;36176;51.506;10.272;2022-11-25T06:27:26;99335.75;;;2.32;100.00
50282;BME280;36176;51.506;10.272;2022-11-25T06:30:29;99339.25;;;2.31;100.00
50282;BME280;36176;51.506;10.272;2022-11-25T06:32:56;99336.69;;;2.30;100.00
50282;BME280;36176;51.506;10.272;2022-11-25T06:35:40;99341.91;;;2.28;100.00
50282;BME280;36176;51.506;10.272;2022-11-25T06:38:10;99338.47;;;2.25;100.00
50282;BME280;36176;51.506;10.272;2022-11-25T06:41:04;99339.34;;;2.25;100.00
50282;BME280;36176;51.506;10.272;2022-11-25T06:44:00;99335.78;;;2.31;100.00
50282;BME280;36176;51.506;10.272;2022-11-25T06:47:04;99333.09;;;2.36;100.00
50282;BME280;36176;51.506;10.272;2022-11-25T06:49:57;99339.25;;;2.31;100.00
50282;BME280;36176;51.506;10.272;2022-11-25T06:52:25;99340.09;;;2.32;100.00
50282;BME280;36176;51.506;10.272;2022-11-25T06:54:55;99335.72;;;2.34;100.00
50282;BME280;36176;51.506;10.272;2022-11-25T06:57:32;99344.38;;;2.38;100.00
50282;BME280;36176;51.506;10.272;2022-11-25T07:00:40;99342.44;;;2.49;100.00
50282;BME280;36176;51.506;10.272;2022-11-25T07:07:14;99359.69;;;2.62;100.00
50282;BME280;36176;51.506;10.272;2022-11-25T07:09:42;99355.34;;;2.61;100.00
50282;BME280;36176;51.506;10.272;2022-11-25T07:12:12;99364.91;;;2.62;100.00
50282;BME280;36176;51.506;10.272;2022-11-25T07:14:39;99369.22;;;2.63;100.00
50282;BME280;36176;51.506;10.272;2022-11-25T07:17:11;99362.28;;;2.64;100.00
50282;BME280;36176;51.506;10.272;2022-11-25T07:19:40;99357.78;;;2.70;100.00
50282;BME280;36176;51.506;10.272;2022-11-25T07:22:11;99358.44;;;2.83;100.00
50282;BME280;36176;51.506;10.272;2022-11-25T07:24:56;99359.94;;;2.96;100.00
50282;BME280;36176;51.506;10.272;2022-11-25T07:27:34;99364.94;;;3.10;100.00
50282;BME280;36176;51.506;10.272;2022-11-25T07:30:06;99354.97;;;3.29;100.00
50282;BME280;36176;51.506;10.272;2022-11-25T07:32:57;99357.09;;;3.54;100.00
50282;BME280;36176;51.506;10.272;2022-11-25T07:35:28;99357.47;;;3.77;100.00
50282;BME280;36176;51.506;10.272;2022-11-25T07:38:20;99360.53;;;3.98;100.00
50282;BME280;36176;51.506;10.272;2022-11-25T07:40:47;99357.56;;;4.13;100.00
50282;BME280;36176;51.506;10.272;2022-11-25T07:43:24;99357.22;;;4.29;100.00
50282;BME280;36176;51.506;10.272;2022-11-25T07:45:52;99373.47;;;4.43;100.00
50282;BME280;36176;51.506;10.272;2022-11-25T07:54:34;99384.56;;;4.92;100.00
50282;BME280;36176;51.506;10.272;2022-11-25T07:57:19;99382.56;;;5.00;100.00
50282;BME280;36176;51.506;10.272;2022-11-25T07:59:46;99388.53;;;5.06;100.00
50282;BME280;36176;51.506;10.272;2022-11-25T08:02:16;99384.84;;;5.14;100.00
50282;BME280;36176;51.506;10.272;2022-11-25T08:04:57;99389.03;;;5.21;99.28
50282;BME280;36176;51.506;10.272;2022-11-25T08:07:39;99387.06;;;5.29;99.78
50282;BME280;36176;51.506;10.272;2022-11-25T08:10:09;99398.31;;;5.34;99.35
50282;BME280;36176;51.506;10.272;2022-11-25T08:12:45;99402.56;;;5.38;98.97
50282;BME280;36176;51.506;10.272;2022-11-25T08:15:22;99401.47;;;5.47;99.32
50282;BME280;36176;51.506;10.272;2022-11-25T08:17:56;99401.44;;;5.48;98.83
50282;BME280;36176;51.506;10.272;2022-11-25T08:20:23;99404.84;;;5.50;98.81
50282;BME280;36176;51.506;10.272;2022-11-25T08:22:50;99406.50;;;5.54;98.85
50282;BME280;36176;51.506;10.272;2022-11-25T08:25:25;99410.88;;;5.56;98.88
50282;BME280;36176;51.506;10.272;2022-11-25T08:28:06;99409.09;;;5.56;99.07
50282;BME280;36176;51.506;10.272;2022-11-25T08:30:40;99416.88;;;5.61;98.99
50282;BME280;36176;51.506;10.272;2022-11-25T08:33:28;99421.22;;;5.60;98.50
50282;BME280;36176;51.506;10.272;2022-11-25T08:38:44;99420.22;;;5.66;98.24
50282;BME280;36176;51.506;10.272;2022-11-25T08:41:37;99414.75;;;5.73;97.24
50282;BME280;36176;51.506;10.272;2022-11-25T08:44:09;99418.78;;;5.85;98.35
50282;BME280;36176;51.506;10.272;2022-11-25T08:46:50;99423.69;;;5.99;98.46
50282;BME280;36176;51.506;10.272;2022-11-25T08:49:22;99414.63;;;6.09;98.67
50282;BME280;36176;51.506;10.272;2022-11-25T08:52:09;99417.94;;;6.16;97.59
50282;BME280;36176;51.506;10.272;2022-11-25T08:54:37;99419.38;;;6.26;97.61
50282;BME280;36176;51.506;10.272;2022-11-25T08:57:04;99419.81;;;6.41;97.12
50282;BME280;36176;51.506;10.272;2022-11-25T08:59:36;99422.00;;;6.54;97.09
50282;BME280;36176;51.506;10.272;2022-11-25T09:02:07;99415.75;;;6.58;95.41
50282;BME280;36176;51.506;10.272;2022-11-25T09:04:42;99423.44;;;6.65;94.94
50282;BME280;36176;51.506;10.272;2022-11-25T09:07:10;99430.13;;;6.75;94.82
50282;BME280;36176;51.506;10.272;2022-11-25T09:09:49;99429.78;;;6.86;94.96
50282;BME280;36176;51.506;10.272;2022-11-25T09:12:21;99427.91;;;6.89;95.00
50282;BME280;36176;51.506;10.272;2022-11-25T09:14:49;99440.06;;;6.93;94.84
50282;BME280;36176;51.506;10.272;2022-11-25T09:17:38;99435.25;;;7.06;94.72
50282;BME280;36176;51.506;10.272;2022-11-25T09:20:12;99436.69;;;7.16;94.93
50282;BME280;36176;51.506;10.272;2022-11-25T09:23:08;99443.38;;;7.25;95.41
50282;BME280;36176;51.506;10.272;2022-11-25T09:25:56;99442.19;;;7.35;95.03
50282;BME280;36176;51.506;10.272;2022-11-25T09:28:33;99443.56;;;7.45;93.80
50282;BME280;36176;51.506;10.272;2022-11-25T09:31:09;99448.56;;;7.53;92.56
50282;BME280;36176;51.506;10.272;2022-11-25T09:33:49;99445.56;;;7.64;92.35
50282;BME280;36176;51.506;10.272;2022-11-25T09:36:18;99452.28;;;7.73;90.84
50282;BME280;36176;51.506;10.272;2022-11-25T09:38:48;99449.28;;;7.83;90.10
50282;BME280;36176;51.506;10.272;2022-11-25T09:42:01;99443.53;;;7.96;87.46
50282;BME280;36176;51.506;10.272;2022-11-25T09:51:22;99438.19;;;7.97;86.45
50282;BME280;36176;51.506;10.272;2022-11-25T09:56:47;99445.41;;;7.92;88.64
50282;BME280;36176;51.506;10.272;2022-11-25T09:59:52;99454.25;;;7.91;87.58
50282;BME280;36176;51.506;10.272;2022-11-25T10:05:11;99447.97;;;7.95;86.62
50282;BME280;36176;51.506;10.272;2022-11-25T10:07:52;99457.03;;;7.88;85.87
50282;BME280;36176;51.506;10.272;2022-11-25T10:10:35;99458.78;;;7.87;86.06
50282;BME280;36176;51.506;10.272;2022-11-25T10:14:02;99450.69;;;7.92;86.47
50282;BME280;36176;51.506;10.272;2022-11-25T10:19:37;99455.34;;;7.85;87.66
50282;BME280;36176;51.506;10.272;2022-11-25T10:22:31;99457.06;;;7.86;87.53
50282;BME280;36176;51.506;10.272;2022-11-25T10:25:32;99452.75;;;7.84;88.51
50282;BME280;36176;51.506;10.272;2022-11-25T10:28:31;99456.25;;;7.84;88.54
50282;BME280;36176;51.506;10.272;2022-11-25T10:33:52;99452.13;;;7.77;88.33
50282;BME280;36176;51.506;10.272;2022-11-25T10:39:58;99453.84;;;7.78;89.10
50282;BME280;36176;51.506;10.272;2022-11-25T10:43:23;99448.66;;;7.75;88.93
50282;BME280;36176;51.506;10.272;2022-11-25T10:50:06;99455.97;;;7.92;90.15
50282;BME280;36176;51.506;10.272;2022-11-25T10:53:41;99450.81;;;7.89;89.10
50282;BME280;36176;51.506;10.272;2022-11-25T10:57:01;99456.41;;;7.80;88.75
50282;BME280;36176;51.506;10.272;2022-11-25T10:59:50;99452.19;;;7.76;89.89
50282;BME280;36176;51.506;10.272;2022-11-25T11:02:44;99456.53;;;7.77;90.30
50282;BME280;36176;51.506;10.272;2022-11-25T11:05:31;99456.66;;;7.74;89.47
50282;BME280;36176;51.506;10.272;2022-11-25T11:08:24;99461.16;;;7.70;90.15
50282;BME280;36176;51.506;10.272;2022-11-25T11:11:14;99466.41;;;7.72;90.44
50282;BME280;36176;51.506;10.272;2022-11-25T11:17:32;99460.88;;;7.54;90.55
50282;BME280;36176;51.506;10.272;2022-11-25T11:20:38;99459.25;;;7.50;90.07
50282;BME280;36176;51.506;10.272;2022-11-25T11:23:45;99459.16;;;7.52;90.00
50282;BME280;36176;51.506;10.272;2022-11-25T11:26:36;99463.59;;;7.51;90.38
50282;BME280;36176;51.506;10.272;2022-11-25T11:29:13;99461.75;;;7.53;90.56
50282;BME280;36176;51.506;10.272;2022-11-25T11:32:04;99468.69;;;7.56;90.89
50282;BME280;36176;51.506;10.272;2022-11-25T11:38:39;99475.56;;;7.61;89.86
50282;BME280;36176;51.506;10.272;2022-11-25T11:40:44;99471.88;;;7.65;90.01
50282;BME280;36176;51.506;10.272;2022-11-25T11:50:05;99481.25;;;7.74;91.55
50282;BME280;36176;51.506;10.272;2022-11-25T11:58:17;99474.03;;;7.79;92.60
50282;BME280;36176;51.506;10.272;2022-11-25T12:10:59;99482.72;;;8.06;92.88
50282;BME280;36176;51.506;10.272;2022-11-25T12:13:39;99490.63;;;8.06;92.24
50282;BME280;36176;51.506;10.272;2022-11-25T12:23:57;99485.13;;;8.13;93.25
50282;BME280;36176;51.506;10.272;2022-11-25T12:29:51;99497.53;;;8.34;92.87
50282;BME280;36176;51.506;10.272;2022-11-25T12:33:02;99492.94;;;8.39;93.12
50282;BME280;36176;51.506;10.272;2022-11-25T12:46:26;99507.06;;;8.15;93.49
50282;BME280;36176;51.506;10.272;2022-11-25T12:49:05;99515.06;;;8.12;93.77
50282;BME280;36176;51.506;10.272;2022-11-25T12:57:27;99529.19;;;8.10;93.53
50282;BME280;36176;51.506;10.272;2022-11-25T13:14:27;99535.59;;;8.03;95.05
50282;BME280;36176;51.506;10.272;2022-11-25T13:17:01;99533.13;;;7.99;94.56
50282;BME280;36176;51.506;10.272;2022-11-25T13:19:35;99535.81;;;7.97;94.88
50282;BME280;36176;51.506;10.272;2022-11-25T13:22:05;99528.66;;;8.01;94.94
50282;BME280;36176;51.506;10.272;2022-11-25T13:25:02;99534.63;;;8.06;94.45
50282;BME280;36176;51.506;10.272;2022-11-25T13:28:03;99537.88;;;8.14;95.02
50282;BME280;36176;51.506;10.272;2022-11-25T13:31:24;99538.41;;;8.24;94.85
50282;BME280;36176;51.506;10.272;2022-11-25T13:34:26;99541.66;;;8.30;94.93
50282;BME280;36176;51.506;10.272;2022-11-25T13:37:11;99541.59;;;8.32;94.61
50282;BME280;36176;51.506;10.272;2022-11-25T13:42:52;99550.63;;;8.26;94.44
50282;BME280;36176;51.506;10.272;2022-11-25T13:45:51;99557.91;;;8.20;94.04
50282;BME280;36176;51.506;10.272;2022-11-25T13:48:52;99556.91;;;8.22;93.84
50282;BME280;36176;51.506;10.272;2022-11-25T13:51:52;99549.69;;;8.27;94.68
50282;BME280;36176;51.506;10.272;2022-11-25T13:58:34;99563.38;;;8.39;94.85
50282;BME280;36176;51.506;10.272;2022-11-25T14:01:25;99567.59;;;8.44;94.51
50282;BME280;36176;51.506;10.272;2022-11-25T14:04:07;99571.84;;;8.48;93.75
50282;BME280;36176;51.506;10.272;2022-11-25T14:27:50;99602.94;;;8.40;92.81
50282;BME280;36176;51.506;10.272;2022-11-25T14:30:24;99606.50;;;8.38;92.21
50282;BME280;36176;51.506;10.272;2022-11-25T14:32:59;99605.78;;;8.34;92.46
50282;BME280;36176;51.506;10.272;2022-11-25T14:35:57;99606.91;;;8.27;91.90
50282;BME280;36176;51.506;10.272;2022-11-25T14:38:55;99603.75;;;8.17;91.97
50282;BME280;36176;51.506;10.272;2022-11-25T14:41:38;99614.44;;;8.13;92.81
50282;BME280;36176;51.506;10.272;2022-11-25T14:44:18;99612.91;;;8.07;92.45
50282;BME280;36176;51.506;10.272;2022-11-25T14:47:03;99610.34;;;8.04;92.98
50282;BME280;36176;51.506;10.272;2022-11-25T14:49:56;99621.94;;;8.00;93.33
50282;BME280;36176;51.506;10.272;2022-11-25T14:52:45;99626.44;;;7.96;93.12
50282;BME280;36176;51.506;10.272;2022-11-25T14:55:38;99626.59;;;7.92;93.29
50282;BME280;36176;51.506;10.272;2022-11-25T14:58:14;99624.94;;;7.89;93.34
50282;BME280;36176;51.506;10.272;2022-11-25T15:00:50;99631.91;;;7.90;93.13
50282;BME280;36176;51.506;10.272;2022-11-25T15:03:29;99637.31;;;7.87;93.10
50282;BME280;36176;51.506;10.272;2022-11-25T15:06:15;99645.34;;;7.84;93.48
50282;BME280;36176;51.506;10.272;2022-11-25T15:08:56;99634.97;;;7.78;93.83
50282;BME280;36176;51.506;10.272;2022-11-25T15:11:43;99649.19;;;7.74;93.93
50282;BME280;36176;51.506;10.272;2022-11-25T15:14:22;99641.50;;;7.66;93.47
50282;BME280;36176;51.506;10.272;2022-11-25T15:16:50;99657.66;;;7.57;93.34
50282;BME280;36176;51.506;10.272;2022-11-25T15:19:21;99650.06;;;7.46;93.64
50282;BME280;36176;51.506;10.272;2022-11-25T15:22:03;99657.38;;;7.38;93.93
50282;BME280;36176;51.506;10.272;2022-11-25T15:24:50;99655.91;;;7.28;93.57
50282;BME280;36176;51.506;10.272;2022-11-25T15:27:24;99666.78;;;7.17;93.59
50282;BME280;36176;51.506;10.272;2022-11-25T15:30:00;99671.63;;;7.01;93.47
50282;BME280;36176;51.506;10.272;2022-11-25T15:32:30;99666.78;;;6.87;94.02
50282;BME280;36176;51.506;10.272;2022-11-25T15:35:00;99671.44;;;6.77;94.67
50282;BME280;36176;51.506;10.272;2022-11-25T15:37:28;99677.16;;;6.62;94.89
50282;BME280;36176;51.506;10.272;2022-11-25T15:40:32;99684.56;;;6.48;95.33
50282;BME280;36176;51.506;10.272;2022-11-25T15:43:26;99682.25;;;6.35;95.35
50282;BME280;36176;51.506;10.272;2022-11-25T15:45:59;99681.66;;;6.24;96.04
50282;BME280;36176;51.506;10.272;2022-11-25T15:48:32;99681.91;;;6.15;95.92
50282;BME280;36176;51.506;10.272;2022-11-25T15:54:30;99678.63;;;6.07;96.72
50282;BME280;36176;51.506;10.272;2022-11-25T15:57:02;99682.47;;;5.92;96.07
50282;BME280;36176;51.506;10.272;2022-11-25T16:00:08;99695.03;;;5.79;96.46
50282;BME280;36176;51.506;10.272;2022-11-25T16:05:14;99687.44;;;5.67;97.63
50282;BME280;36176;51.506;10.272;2022-11-25T16:10:20;99697.31;;;5.57;98.58